• Join FlightAware (Why Join?)
  • Login
  • US Flag 
04:55PM EST


 

Airport Tracker/Info


-or-


 

Live Flight TrackerFlight Track Log ✈ SWA2432 ✈ 27-Jun-2013 ✈ KLAS - KOAK

Flight Track Log - Related Links

Times and Time Zones

All times are in EDT time to prevent confusion due to time zone crossing. See the SWA2432 flight status page for this flight to view local times or setup timezone preferences in your user account.

Time Position Orientation Groundspeed Altitude Reporting Facility
EDT Latitude Longitude Course Direction KTS MPH feet Rate Location/Type
04:57PM 36.0772 -115.1039 91° East 180 207 3,200  Level Los Angeles Center
04:59PM 36.0758 -115.0167 91° East 213 245 5,500 1,860 Climbing Los Angeles Center
05:00PM 36.0492 -114.9386 113° Southeast 255 293 7,600 2,460 Climbing Los Angeles Center
05:01PM 35.9883 -114.9878 213° Southwest 284 327 10,700 2,640 Climbing Los Angeles Center
05:02PM 35.9783 -115.1192 265° West 305 351 13,200 2,400 Climbing Los Angeles Center
05:03PM 35.9647 -115.2428 262° West 332 382 15,700 2,460 Climbing Los Angeles Center
05:04PM 35.9531 -115.3750 264° West 359 413 18,400 2,400 Climbing Los Angeles Center
05:05PM 35.9394 -115.5142 263° West 395 455 20,700 2,340 Climbing Los Angeles Center
05:06PM 35.9239 -115.6667 263° West 411 473 23,300 2,160 Climbing Los Angeles Center
05:07PM 35.9125 -115.8003 264° West 420 483 25,200 1,920 Climbing Los Angeles Center
05:08PM 35.9125 -115.9697 270° West 444 511 27,300 2,040 Climbing Los Angeles Center
05:09PM 35.9947 -116.0825 312° West 454 522 29,500 1,980 Climbing Los Angeles Center
05:10PM 36.0836 -116.1864 317° Northwest 451 519 31,500 1,080 Climbing Los Angeles Center
05:11PM 36.1789 -116.2947 317° Northwest 455 524 32,000 180 Climbing Los Angeles Center
05:12PM 36.2936 -116.4289 317° Northwest 471 542 32,000  Level Los Angeles Center
05:13PM 36.4083 -116.5614 317° Northwest 471 542 32,000  Level Los Angeles Center
05:15PM 36.5028 -116.6708 317° Northwest 468 539 32,000  Level Los Angeles Center
05:16PM 36.6003 -116.7792 318° Northwest 468 539 32,000  Level Los Angeles Center
05:17PM 36.7136 -116.8619 330° Northwest 471 542 32,000  Level Los Angeles Center
05:18PM 36.8269 -116.9461 329° Northwest 472 543 32,000  Level Los Angeles Center
05:19PM 36.9831 -117.0686 328° Northwest 473 544 32,000  Level Los Angeles Center
05:20PM 37.0739 -117.1386 328° Northwest 475 547 32,000  Level Oakland Center
05:21PM 37.1869 -117.2250 329° Northwest 475 547 32,000  Level Oakland Center
05:22PM 37.2931 -117.3214 324° Northwest 476 548 32,000  Level Oakland Center
05:23PM 37.3297 -117.4725 287° West 463 533 32,000  Level Oakland Center
05:24PM 37.3578 -117.6289 283° West 456 525 32,000  Level Oakland Center
05:25PM 37.3864 -117.7831 283° West 453 521 32,000  Level Oakland Center
05:26PM 37.4142 -117.9392 283° West 455 524 32,000  Level Oakland Center
05:27PM 37.4417 -118.0939 283° West 453 521 32,000  Level Oakland Center
05:28PM 37.4753 -118.2817 283° West 455 524 32,000  Level Oakland Center
05:29PM 37.5022 -118.4383 282° West 455 524 32,000  Level Oakland Center
05:30PM 37.5292 -118.5939 282° West 455 524 32,000  Level Oakland Center
05:31PM 37.5564 -118.7517 282° West 460 529 32,000 -60 Level Oakland Center
05:32PM 37.5825 -118.9144 281° West 453 521 31,900  Descending Oakland Center
05:33PM 37.6111 -119.0825 282° West 460 529 32,000  Climbing Oakland Center
05:34PM 37.6375 -119.2400 282° West 460 529 32,000  Level Oakland Center
05:35PM 37.6636 -119.3983 282° West 460 529 32,000  Level Oakland Center
05:36PM 37.6883 -119.5550 281° West 457 526 32,000  Level Oakland Center
05:37PM 37.7147 -119.7100 282° West 454 522 32,000  Level Oakland Center
05:38PM 37.7400 -119.8681 281° West 458 527 32,000  Level Oakland Center
05:39PM 37.7642 -120.0242 281° West 455 524 32,000  Level Oakland Center
05:40PM 37.7892 -120.1775 282° West 448 516 32,000 -720 Level Oakland Center
05:41PM 37.8178 -120.3639 281° West 451 519 30,600 -1,560 Descending Oakland Center
05:42PM 37.8425 -120.5175 282° West 448 516 28,800 -2,460 Descending Oakland Center
05:43PM 37.8667 -120.6500 283° West 452 520 26,200 -3,240 Descending Northern Cal TRACON
05:44PM 37.8500 -120.8000 262° West 446 513 23,100 -3,300 Descending Northern Cal TRACON
05:45PM 37.8500 -120.9500 270° West 428 493 19,600 -3,780 Descending Northern Cal TRACON
05:46PM 37.8333 -121.1000 262° West 409 471 15,600 -3,420 Descending Northern Cal TRACON
05:47PM 37.8167 -121.2333 261° West 449 517 12,800 -2,100 Descending Northern Cal TRACON
05:48PM 37.7667 -121.3500 242° Southwest 374 430 11,400 -1,200 Descending Northern Cal TRACON
05:49PM 37.7333 -121.4667 250° West 361 415 10,500 -720 Descending Northern Cal TRACON
05:50PM 37.6833 -121.5833 242° Southwest 327 376 10,000 -1,200 Descending Northern Cal TRACON
05:51PM 37.6500 -121.6833 247° West 301 346 8,100 -1,500 Descending Northern Cal TRACON
05:52PM 37.6333 -121.7667 256° West 283 326 7,100 -1,260 Descending Northern Cal TRACON
05:53PM 37.6333 -121.8667 270° West 280 322 5,600 -1,500 Descending Northern Cal TRACON
05:54PM 37.6333 -121.9667 270° West 276 318 4,100 -960 Descending Northern Cal TRACON
05:55PM 37.6167 -122.0500 256° West 231 266 3,700 -900 Descending Northern Cal TRACON
05:56PM 37.6333 -122.1167 288° West 182 209 2,400 -1,260 Descending Northern Cal TRACON
05:57PM 37.6667 -122.1500 322° Northwest 148 170 1,200 -900 Descending Northern Cal TRACON
05:58PM 37.6833 -122.1833 302° West 128 147 600 -600 Descending Northern Cal TRACON
06:01PM 37.7167 -122.2167 270° West  Level FlightAware Approximate
06:08PM 37.7213 -122.2207 270° West  Level Estimated